Flugplatz Mönchengladbach

Bericht für EDLN

vom 31.05. um 10:50 UTC

Wind 12 kt aus 60°

Sichtweite 10 km oder mehr

gute Sicht, keine Wolken < 5000 ft, keine CB, keine Wettererscheinungen (CAVOK)

Temperatur 19.0°C

Taupunkt 4.0°C

Luftfeuchtigkeit 37%

Luftdruck 1022 hPa

EDLN 311050Z 06012KT 010V100 CAVOK 19/04 Q1022

Prognose für EDLN

vom 31.05. um 08:00 UTC

Zwischen 09:00 UTC und 18:00 UTC

Wind 11 kt aus 60°

Sichtweite 10 km oder mehr

keine signifikanten Wettererscheinungen

keine Wolken

TAF EDLN 310800Z 3109/3118 06011KT CAVOK
Impressum